createdAt,value
2022-08-12T00:00:17.608Z,48.20
2022-08-12T00:05:40.013Z,48.40
2022-08-12T00:11:20.313Z,48.70
2022-08-12T00:16:39.846Z,49.00
2022-08-12T00:22:01.366Z,48.80
2022-08-12T00:27:20.817Z,49.40
2022-08-12T00:32:41.371Z,49.60
2022-08-12T00:38:14.899Z,49.60
2022-08-12T00:43:17.569Z,49.80
2022-08-12T00:48:20.958Z,50.20
2022-08-12T00:53:24.928Z,50.30
2022-08-12T00:58:29.309Z,50.60
2022-08-12T01:03:49.832Z,51.10
2022-08-12T01:09:13.759Z,51.50
2022-08-12T01:14:16.019Z,51.90
2022-08-12T01:19:22.221Z,52.10
2022-08-12T01:24:54.778Z,53.60
2022-08-12T01:29:58.961Z,54.10
2022-08-12T01:35:05.881Z,53.60
2022-08-12T01:40:33.510Z,54.20
2022-08-12T01:45:43.003Z,53.70
2022-08-12T01:51:06.166Z,53.50
2022-08-12T01:56:11.381Z,54.10
2022-08-12T02:01:15.229Z,54.40
2022-08-12T02:06:44.430Z,54.20
2022-08-12T02:11:58.862Z,55.40
2022-08-12T02:17:54.598Z,56.00
2022-08-12T02:22:47.415Z,56.30
2022-08-12T02:27:52.646Z,56.70
2022-08-12T02:32:56.482Z,57.10
2022-08-12T02:38:02.041Z,56.40
2022-08-12T02:43:13.658Z,56.30
2022-08-12T02:48:18.746Z,56.40
2022-08-12T02:53:21.831Z,56.70
2022-08-12T02:58:33.480Z,56.90
2022-08-12T03:03:36.541Z,57.70
2022-08-12T03:08:43.591Z,58.80
2022-08-12T03:13:59.431Z,59.30
2022-08-12T03:19:01.685Z,58.40
2022-08-12T03:24:05.870Z,59.00
2022-08-12T03:29:09.348Z,59.20
2022-08-12T03:34:12.861Z,58.90
2022-08-12T03:39:36.057Z,58.90
2022-08-12T03:45:01.066Z,59.20
2022-08-12T03:50:22.190Z,59.60
2022-08-12T03:55:41.752Z,59.60
2022-08-12T04:00:46.141Z,60.00
2022-08-12T04:05:55.884Z,59.70
2022-08-12T04:11:16.751Z,60.50
2022-08-12T04:16:22.046Z,60.70
2022-08-12T04:21:25.906Z,61.00
2022-08-12T04:26:28.441Z,61.00
2022-08-12T04:31:36.068Z,60.70
2022-08-12T04:36:39.675Z,61.00
2022-08-12T04:41:52.466Z,61.10
2022-08-12T04:47:02.324Z,62.00
2022-08-12T04:52:05.815Z,56.90
2022-08-12T04:57:10.122Z,55.90
2022-08-12T05:02:17.065Z,54.40
2022-08-12T05:07:24.278Z,54.70
2022-08-12T05:12:29.683Z,53.80
2022-08-12T05:17:33.256Z,52.50
2022-08-12T05:22:37.968Z,51.30
2022-08-12T05:27:40.372Z,50.50
2022-08-12T05:33:05.289Z,50.00
2022-08-12T05:38:24.543Z,49.40
2022-08-12T05:43:26.872Z,48.90
2022-08-12T05:48:33.097Z,48.90
2022-08-12T05:53:35.319Z,49.30
2022-08-12T05:58:37.455Z,49.00
2022-08-12T06:03:42.253Z,48.10
2022-08-12T06:08:45.067Z,47.80
2022-08-12T06:13:54.046Z,47.70
2022-08-12T06:18:58.126Z,48.40
2022-08-12T06:24:00.267Z,48.30
2022-08-12T06:29:02.506Z,47.80
2022-08-12T06:35:25.937Z,47.90
2022-08-12T06:39:30.889Z,48.40
2022-08-12T06:44:33.158Z,48.40
2022-08-12T06:49:36.953Z,47.90
2022-08-12T06:54:39.528Z,47.30
2022-08-12T06:59:41.840Z,47.10
2022-08-12T07:04:47.532Z,46.50
2022-08-12T07:10:04.003Z,46.10
2022-08-12T07:15:10.264Z,46.10
2022-08-12T07:20:35.918Z,46.10
2022-08-12T07:25:41.399Z,45.70
2022-08-12T07:30:45.419Z,45.60
2022-08-12T07:35:49.795Z,45.90
2022-08-12T07:40:53.458Z,46.10
2022-08-12T07:45:56.971Z,45.90
2022-08-12T07:51:00.481Z,46.00
2022-08-12T07:56:03.418Z,45.60
2022-08-12T08:01:05.968Z,45.40
2022-08-12T08:06:18.872Z,45.50
2022-08-12T08:11:39.666Z,45.30
2022-08-12T08:16:43.207Z,45.40
2022-08-12T08:21:46.884Z,45.20
2022-08-12T08:26:51.184Z,44.50
2022-08-12T08:31:56.108Z,44.50
2022-08-12T08:36:59.637Z,43.50
2022-08-12T08:42:25.362Z,42.60
2022-08-12T08:47:27.476Z,42.30
2022-08-12T08:52:39.813Z,41.90
2022-08-12T08:57:44.700Z,41.80
2022-08-12T09:02:49.423Z,40.80
2022-08-12T09:08:13.233Z,39.30
2022-08-12T09:14:10.434Z,39.40
2022-08-12T09:18:54.200Z,40.40
2022-08-12T09:30:11.581Z,39.20
2022-08-12T09:34:50.519Z,39.90
2022-08-12T09:40:01.798Z,39.80
2022-08-12T09:46:11.977Z,38.60
2022-08-12T09:50:50.633Z,38.80
2022-08-12T09:56:06.349Z,38.10
2022-08-12T10:01:23.318Z,37.40
2022-08-12T10:06:32.460Z,36.60
2022-08-12T10:12:09.917Z,36.00
2022-08-12T10:17:14.777Z,36.20
2022-08-12T10:22:38.980Z,35.70
2022-08-12T10:28:05.305Z,33.90
2022-08-12T10:33:18.973Z,33.20
2022-08-12T10:38:37.522Z,33.00
2022-08-12T10:43:55.184Z,32.90
2022-08-12T10:49:06.930Z,32.40
2022-08-12T10:54:27.027Z,31.90
2022-08-12T11:00:30.140Z,31.10
2022-08-12T11:07:03.693Z,30.40
2022-08-12T11:10:26.780Z,30.50
2022-08-12T11:16:03.267Z,30.10
2022-08-12T11:20:58.076Z,29.40
2022-08-12T11:26:05.614Z,29.10
2022-08-12T11:31:14.216Z,28.90
2022-08-12T11:36:17.706Z,27.20
2022-08-12T11:41:31.701Z,26.60
2022-08-12T11:46:38.119Z,26.70
2022-08-12T11:51:41.187Z,26.90
2022-08-12T11:56:59.013Z,27.20
2022-08-12T12:02:05.137Z,26.30
2022-08-12T12:07:11.223Z,25.60
2022-08-12T12:12:14.061Z,25.30
2022-08-12T12:17:17.574Z,25.10
2022-08-12T12:22:30.789Z,24.90
2022-08-12T12:28:03.908Z,24.50
2022-08-12T12:33:10.182Z,24.00
2022-08-12T12:38:25.430Z,23.20
2022-08-12T12:43:29.177Z,23.50
2022-08-12T12:48:46.045Z,23.10
2022-08-12T12:59:56.722Z,21.60
2022-08-12T13:04:37.469Z,22.10
2022-08-12T13:09:39.869Z,21.30
2022-08-12T13:14:48.845Z,21.40
2022-08-12T13:19:55.470Z,21.50
2022-08-12T13:24:59.766Z,21.80
2022-08-12T13:30:07.038Z,20.70
2022-08-12T13:40:40.554Z,19.50
2022-08-12T13:45:42.994Z,20.00
2022-08-12T13:50:46.452Z,20.60
2022-08-12T13:55:59.319Z,20.80
2022-08-12T14:01:06.488Z,21.10
2022-08-12T14:06:16.742Z,20.20
2022-08-12T14:11:25.238Z,20.40
2022-08-12T14:16:37.905Z,19.60
2022-08-12T14:22:01.604Z,19.20
2022-08-12T14:32:16.579Z,18.40
2022-08-12T14:37:55.372Z,18.80
2022-08-12T14:42:44.673Z,20.20
2022-08-12T14:47:58.414Z,21.10
2022-08-12T14:58:27.202Z,21.50
2022-08-12T15:03:52.528Z,20.10
2022-08-12T15:08:54.651Z,19.70
2022-08-12T15:13:59.831Z,18.40
2022-08-12T15:19:01.986Z,17.90
2022-08-12T15:24:23.658Z,17.20
2022-08-12T15:29:26.285Z,16.90
2022-08-12T15:34:30.823Z,17.10
2022-08-12T15:39:34.607Z,17.10
2022-08-12T15:44:42.957Z,16.40
2022-08-12T15:50:00.148Z,16.60
2022-08-12T15:55:06.125Z,16.50
2022-08-12T16:00:31.802Z,17.00
2022-08-12T16:06:11.527Z,17.00
2022-08-12T16:10:59.993Z,17.00
2022-08-12T16:16:22.431Z,17.40
2022-08-12T16:21:50.461Z,17.10
2022-08-12T16:26:51.354Z,17.80
2022-08-12T16:31:56.318Z,18.00
2022-08-12T16:37:03.315Z,18.30
2022-08-12T16:42:07.172Z,18.40
2022-08-12T16:47:10.699Z,18.70
2022-08-12T16:52:16.665Z,18.60
2022-08-12T16:57:35.108Z,19.30
2022-08-12T17:02:40.467Z,20.90
2022-08-12T17:07:47.241Z,21.80
2022-08-12T17:12:55.583Z,23.80
2022-08-12T17:18:39.189Z,24.10
2022-08-12T17:23:21.627Z,24.60
2022-08-12T17:28:26.511Z,25.10
2022-08-12T17:33:33.560Z,25.50
2022-08-12T17:38:38.268Z,25.80
2022-08-12T17:43:57.757Z,26.40
2022-08-12T17:49:00.986Z,26.80
2022-08-12T17:54:12.913Z,27.00
2022-08-12T17:59:27.449Z,27.80
2022-08-12T18:05:05.028Z,28.00
2022-08-12T18:10:07.614Z,28.00
2022-08-12T18:15:27.032Z,28.30
2022-08-12T18:20:44.662Z,28.30
2022-08-12T18:26:12.247Z,28.70
2022-08-12T18:31:23.387Z,29.00
2022-08-12T18:36:26.517Z,29.60
2022-08-12T18:41:32.106Z,29.90
2022-08-12T18:46:53.964Z,30.00
2022-08-12T18:52:04.916Z,30.80
2022-08-12T18:57:16.166Z,30.70
2022-08-12T19:02:25.410Z,32.40
2022-08-12T19:07:29.761Z,33.20
2022-08-12T19:13:09.160Z,31.90
2022-08-12T19:18:14.345Z,31.60
2022-08-12T19:23:20.939Z,31.80
2022-08-12T19:28:29.939Z,32.00
2022-08-12T19:33:37.380Z,31.90
2022-08-12T19:38:46.633Z,32.20
2022-08-12T19:44:18.552Z,33.00
2022-08-12T19:49:25.434Z,33.50
2022-08-12T19:54:30.443Z,32.80
2022-08-12T19:59:42.980Z,33.00
2022-08-12T20:06:04.471Z,33.10
2022-08-12T20:10:35.513Z,32.10
2022-08-12T20:15:44.261Z,32.60
2022-08-12T20:20:48.791Z,32.80
2022-08-12T20:25:52.809Z,33.20
2022-08-12T20:31:02.315Z,34.10
2022-08-12T20:36:41.747Z,34.20
2022-08-12T20:41:29.242Z,34.70
2022-08-12T20:46:32.566Z,35.00
2022-08-12T20:51:51.081Z,35.40
2022-08-12T20:56:58.030Z,35.80
2022-08-12T21:02:04.912Z,36.40
2022-08-12T21:07:11.457Z,37.40
2022-08-12T21:12:28.735Z,37.70
2022-08-12T21:18:09.669Z,38.30
2022-08-12T21:22:58.672Z,39.40
2022-08-12T21:28:01.005Z,40.10
2022-08-12T21:33:04.821Z,40.60
2022-08-12T21:38:14.550Z,41.10
2022-08-12T21:43:21.131Z,42.00
2022-08-12T21:48:25.157Z,42.60
2022-08-12T21:54:06.425Z,43.10
2022-08-12T21:58:50.851Z,43.70
2022-08-12T22:04:11.479Z,44.00
2022-08-12T22:09:17.751Z,44.80
2022-08-12T22:14:23.525Z,45.00
2022-08-12T22:19:27.163Z,45.20
2022-08-12T22:24:30.965Z,45.80
2022-08-12T22:29:50.414Z,45.20
2022-08-12T22:35:12.618Z,45.20
2022-08-12T22:40:26.658Z,45.30
2022-08-12T22:45:48.440Z,45.70
2022-08-12T22:50:50.820Z,46.00
2022-08-12T22:56:00.066Z,46.50
2022-08-12T23:01:10.861Z,46.80
2022-08-12T23:06:13.384Z,47.10
2022-08-12T23:11:18.051Z,47.10
2022-08-12T23:16:33.372Z,47.40
2022-08-12T23:22:03.716Z,47.80
2022-08-12T23:27:18.304Z,48.00
2022-08-12T23:32:35.568Z,48.20
2022-08-12T23:37:47.108Z,48.30
2022-08-12T23:42:57.030Z,48.20
2022-08-12T23:47:59.930Z,48.80
2022-08-12T23:53:05.618Z,49.00
2022-08-12T23:58:20.784Z,49.20
